Time;durP1;ratioP1;P1;durP2;ratioP2;P2;SDS_P1;SDS_P2;PMS_P1;PMS_P2;Temp;Humidity;BMP_temperature;BMP_pressure;BME280_temperature;BME280_humidity;BME280_pressure;Samples;Min_cycle;Max_cycle;Signal;HPM_P1;HPM_P2
2023/03/01 00:00:41;;;;;;;18.30;10.05;;;;;;;6.83;44.77;100822.91;7683303;32;38828;-85
2023/03/01 00:04:57;;;;;;;17.95;9.73;;;;;;;6.84;44.84;100838.13;7683752;32;39895;-83
2023/03/01 00:09:15;;;;;;;20.33;9.85;;;;;;;6.86;44.50;100833.31;7669938;32;37874;-84
2023/03/01 00:13:31;;;;;;;20.48;9.77;;;;;;;6.60;45.03;100828.94;7683731;32;37320;-84
2023/03/01 00:17:47;;;;;;;20.52;10.10;;;;;;;6.76;44.78;100822.97;7682776;32;39398;-83
2023/03/01 00:22:03;;;;;;;20.45;11.38;;;;;;;6.80;44.72;100837.75;7683187;32;40828;-83
2023/03/01 00:26:24;;;;;;;20.55;10.80;;;;;;;6.87;44.84;100834.97;7683313;32;37961;-84
2023/03/01 00:30:40;;;;;;;22.00;11.35;;;;;;;6.87;45.42;100832.28;7682709;32;37466;-85
2023/03/01 00:34:57;;;;;;;21.12;11.73;;;;;;;6.82;45.67;100843.78;7683152;32;39852;-83
2023/03/01 00:39:14;;;;;;;21.23;11.23;;;;;;;6.90;45.76;100839.97;7682763;32;39944;-84
2023/03/01 00:43:36;;;;;;;22.67;11.10;;;;;;;6.88;45.91;100831.19;7682856;32;37913;-84
2023/03/01 00:47:52;;;;;;;18.83;10.23;;;;;;;6.89;45.65;100838.28;7682799;32;37272;-85
2023/03/01 00:52:09;;;;;;;19.65;10.43;;;;;;;6.78;45.37;100837.16;7682808;32;39821;-85
2023/03/01 00:56:25;;;;;;;21.75;11.07;;;;;;;6.79;45.13;100840.66;7682164;32;39932;-84
2023/03/01 01:00:41;;;;;;;21.27;12.35;;;;;;;6.89;45.17;100833.69;7682643;32;38865;-84
2023/03/01 01:04:57;;;;;;;21.67;12.27;;;;;;;7.02;44.74;100830.06;7686053;32;38074;-85
2023/03/01 01:09:19;;;;;;;20.37;10.45;;;;;;;7.12;44.29;100833.09;7685887;32;39988;-84
2023/03/01 01:13:36;;;;;;;21.23;11.27;;;;;;;6.79;45.39;100832.53;7685656;32;40062;-84
2023/03/01 01:17:52;;;;;;;24.20;11.50;;;;;;;6.77;45.40;100836.28;7672075;32;38732;-83
2023/03/01 01:22:09;;;;;;;19.25;10.48;;;;;;;6.79;45.71;100822.53;7685751;32;37089;-84
2023/03/01 01:26:30;;;;;;;16.62;9.68;;;;;;;6.72;46.46;100822.56;7685682;32;39267;-84
2023/03/01 01:30:47;;;;;;;17.52;9.30;;;;;;;6.78;46.22;100820.88;7685759;32;40855;-85
2023/03/01 01:35:04;;;;;;;15.85;9.52;;;;;;;6.67;46.81;100816.97;7685734;32;38867;-83
2023/03/01 01:39:21;;;;;;;16.35;9.20;;;;;;;6.80;46.69;100815.25;7685817;32;37199;-83
2023/03/01 01:43:48;;;;;;;14.90;8.95;;;;;;;6.75;46.39;100803.16;7685775;32;39232;-81
2023/03/01 01:48:19;;;;;;;15.35;9.15;;;;;;;6.57;46.43;100803.09;7685641;32;40867;-84
2023/03/01 01:52:37;;;;;;;15.63;8.95;;;;;;;6.55;46.43;100799.78;7685546;32;38659;-83
2023/03/01 01:56:58;;;;;;;15.93;9.05;;;;;;;6.83;45.43;100790.38;7684126;32;37406;-83
2023/03/01 02:01:14;;;;;;;17.20;8.95;;;;;;;6.59;45.86;100795.59;7672526;32;39852;-83
2023/03/01 02:05:31;;;;;;;17.33;9.13;;;;;;;6.63;45.91;100791.38;7685496;32;39670;-84
2023/03/01 02:09:50;;;;;;;16.17;9.18;;;;;;;6.54;46.22;100787.31;7685664;32;36751;-85
2023/03/01 02:14:06;;;;;;;16.58;9.82;;;;;;;6.34;46.40;100787.44;7685232;32;36970;-84
2023/03/01 02:18:24;;;;;;;16.77;9.63;;;;;;;6.56;45.71;100780.59;7685393;32;39231;-83
2023/03/01 02:22:43;;;;;;;15.55;8.90;;;;;;;6.71;45.35;100766.72;7685176;32;39931;-81
2023/03/01 02:27:00;;;;;;;19.70;9.68;;;;;;;6.44;45.86;100766.13;7671793;32;38646;-84
2023/03/01 02:35:55;;;;;;;16.12;9.15;;;;;;;6.44;46.06;100751.75;7684670;32;40309;-85
2023/03/01 02:40:17;;;;;;;17.80;9.23;;;;;;;6.43;46.35;100750.09;7685178;32;39115;-84
2023/03/01 02:44:33;;;;;;;17.25;9.98;;;;;;;6.40;46.24;100754.06;7685039;32;38665;-84
2023/03/01 02:48:52;;;;;;;19.40;9.82;;;;;;;6.59;45.65;100757.66;7671197;32;37260;-84
2023/03/01 02:53:30;;;;;;;18.12;10.38;;;;;;;6.66;45.41;100753.03;7684783;32;40090;-84
2023/03/01 03:02:38;;;;;;;19.55;10.68;;;;;;;6.72;45.19;100754.81;7686737;27;20102;-80
2023/03/01 03:06:54;;;;;;;21.08;10.77;;;;;;;6.58;45.37;100750.59;7620097;32;37909;-79
2023/03/01 03:11:10;;;;;;;19.50;10.80;;;;;;;6.86;44.64;100738.44;7632098;32;39871;-78
2023/03/01 03:15:27;;;;;;;18.10;9.68;;;;;;;6.62;45.20;100746.38;7631998;32;41016;-78
2023/03/01 03:19:45;;;;;;;21.62;10.55;;;;;;;6.60;45.29;100743.06;7631805;32;38021;-79
2023/03/01 03:24:01;;;;;;;18.80;9.45;;;;;;;6.79;45.06;100734.97;7631140;32;37421;-79
2023/03/01 03:28:18;;;;;;;21.05;10.25;;;;;;;6.77;46.93;100729.78;7610806;32;39422;-79
2023/03/01 03:32:35;;;;;;;20.55;9.60;;;;;;;6.70;45.21;100724.41;7605785;32;39929;-79
2023/03/01 03:37:01;;;;;;;17.62;9.43;;;;;;;6.41;45.44;100727.81;7605762;32;38811;-80
2023/03/01 03:41:18;;;;;;;17.15;10.13;;;;;;;6.65;44.80;100726.13;7605851;32;37081;-79
2023/03/01 03:45:35;;;;;;;18.17;10.20;;;;;;;6.53;45.33;100723.31;7605715;32;39621;-79
2023/03/01 03:49:51;;;;;;;19.92;10.43;;;;;;;6.55;45.17;100729.34;7605494;32;40034;-79
2023/03/01 03:54:07;;;;;;;19.58;10.02;;;;;;;6.65;44.90;100729.66;7605452;32;38020;-80
2023/03/01 03:58:25;;;;;;;16.12;9.10;;;;;;;6.50;45.22;100730.03;7624975;32;38095;-80
2023/03/01 04:02:42;;;;;;;18.48;9.70;;;;;;;6.59;45.06;100717.03;7631548;32;39312;-79
2023/03/01 04:06:58;;;;;;;19.52;9.57;;;;;;;6.75;44.83;100719.16;7606793;32;40668;-79
2023/03/01 04:11:26;;;;;;;21.33;10.50;;;;;;;6.54;45.01;100716.88;7605101;32;37719;-79
2023/03/01 04:15:43;;;;;;;21.50;11.63;;;;;;;6.57;45.08;100716.41;7605262;32;37947;-79
2023/03/01 04:19:59;;;;;;;16.12;9.35;;;;;;;6.58;45.13;100720.78;7604963;32;39346;-81
2023/03/01 04:24:16;;;;;;;16.23;9.57;;;;;;;6.44;45.04;100716.53;7604863;32;40010;-80
2023/03/01 04:28:36;;;;;;;16.67;9.20;;;;;;;6.42;45.21;100724.87;7604649;32;38627;-80
2023/03/01 04:32:53;;;;;;;16.77;9.07;;;;;;;6.32;44.85;100724.56;7604801;32;37194;-79
2023/03/01 04:37:09;;;;;;;17.30;9.40;;;;;;;6.58;44.40;100723.50;7605468;32;39339;-79
2023/03/01 04:41:25;;;;;;;17.00;9.45;;;;;;;6.38;45.78;100724.50;7607826;32;39866;-80
2023/03/01 04:45:42;;;;;;;19.25;9.48;;;;;;;6.41;45.84;100722.41;7606449;32;38700;-80
2023/03/01 04:49:58;;;;;;;17.77;9.90;;;;;;;6.53;44.77;100721.44;7629187;32;38036;-79
2023/03/01 04:54:14;;;;;;;20.12;10.00;;;;;;;6.54;44.64;100727.69;7633950;32;39877;-79
2023/03/01 04:58:31;;;;;;;14.48;8.52;;;;;;;6.35;45.47;100724.94;7633535;32;40065;-79
2023/03/01 05:02:53;;;;;;;18.83;10.07;;;;;;;6.29;46.13;100735.81;7633433;32;37968;-79
2023/03/01 05:07:09;;;;;;;18.08;10.35;;;;;;;6.24;46.46;100731.06;7633803;32;37220;-80
2023/03/01 05:11:25;;;;;;;16.80;10.48;;;;;;;6.37;46.04;100738.25;7633504;32;39466;-79
2023/03/01 05:15:42;;;;;;;18.62;10.05;;;;;;;6.53;45.62;100728.75;7633211;32;40903;-79
2023/03/01 05:19:59;;;;;;;15.68;9.20;;;;;;;6.30;45.86;100727.47;7611982;32;36114;-79
2023/03/01 05:24:15;;;;;;;17.05;9.32;;;;;;;6.20;45.75;100719.84;7607349;32;37294;-80
2023/03/01 05:28:32;;;;;;;16.80;9.23;;;;;;;6.35;45.54;100722.22;7607155;32;40190;-79
2023/03/01 05:32:55;;;;;;;14.20;8.30;;;;;;;6.19;45.57;100725.47;7607324;32;40625;-79
2023/03/01 05:37:12;;;;;;;16.42;8.93;;;;;;;6.20;45.86;100727.12;7623332;32;38007;-79
2023/03/01 05:41:28;;;;;;;26.15;9.57;;;;;;;6.08;45.84;100726.19;7619849;32;38256;-79
2023/03/01 05:45:45;;;;;;;14.30;7.95;;;;;;;6.12;46.51;100727.41;7619801;32;39874;-79
2023/03/01 05:50:02;;;;;;;17.02;8.35;;;;;;;6.38;44.83;100734.47;7618936;32;40911;-80
2023/03/01 05:54:19;;;;;;;14.80;8.52;;;;;;;6.24;44.92;100741.06;7632998;32;39033;-79
2023/03/01 05:58:35;;;;;;;15.70;8.43;;;;;;;6.31;44.64;100739.13;7632787;32;37233;-80
2023/03/01 06:02:53;;;;;;;16.15;7.72;;;;;;;6.32;45.02;100735.37;7633003;32;40087;-80
2023/03/01 06:07:09;;;;;;;17.08;8.90;;;;;;;6.46;44.86;100736.94;7617702;32;40002;-79
2023/03/01 06:11:25;;;;;;;17.67;8.68;;;;;;;6.41;45.04;100733.22;7606605;32;38169;-79
2023/03/01 06:15:41;;;;;;;16.25;8.80;;;;;;;6.41;45.12;100744.06;7615397;32;37334;-80
2023/03/01 06:19:58;;;;;;;13.95;8.45;;;;;;;6.34;45.59;100734.09;7632910;32;40198;-80
2023/03/01 06:24:14;;;;;;;16.40;8.40;;;;;;;6.50;45.30;100745.44;7632308;32;39930;-79
2023/03/01 06:28:30;;;;;;;17.95;8.43;;;;;;;6.61;45.10;100747.44;7632420;32;38529;-79
2023/03/01 06:32:47;;;;;;;17.77;8.77;;;;;;;6.60;45.14;100753.91;7632454;32;37000;-80
2023/03/01 06:37:05;;;;;;;24.55;8.60;;;;;;;6.35;45.34;100754.72;7632538;32;40116;-79
2023/03/01 06:41:21;;;;;;;13.75;7.70;;;;;;;6.49;45.44;100758.16;7621452;32;39904;-80
2023/03/01 06:45:37;;;;;;;14.95;7.93;;;;;;;6.73;44.66;100764.62;7606262;32;38681;-79
2023/03/01 06:49:53;;;;;;;14.60;7.62;;;;;;;6.65;44.34;100769.50;7606171;32;37224;-80
2023/03/01 06:54:10;;;;;;;14.95;8.05;;;;;;;6.68;44.31;100767.16;7608415;32;39405;-79
2023/03/01 06:58:26;;;;;;;16.48;7.62;;;;;;;6.81;43.97;100763.50;7605074;32;39747;-79
2023/03/01 07:02:42;;;;;;;15.75;8.48;;;;;;;6.74;44.13;100760.88;7606650;32;37564;-79
2023/03/01 07:06:59;;;;;;;19.23;8.25;;;;;;;6.88;43.83;100767.00;7605610;32;37067;-79
2023/03/01 07:11:15;;;;;;;15.32;8.23;;;;;;;7.04;43.31;100762.87;7606014;32;39721;-79
2023/03/01 07:15:32;;;;;;;19.02;10.07;;;;;;;7.16;42.70;100771.09;7605935;32;40752;-80
2023/03/01 07:21:03;;;;;;;17.25;8.20;;;;;;;7.27;43.15;100758.66;7834176;31;213259;-81
2023/03/01 07:25:20;;;;;;;15.60;8.73;;;;;;;7.15;43.34;100762.09;7799137;32;40611;-80
2023/03/01 07:29:36;;;;;;;16.77;9.70;;;;;;;7.37;42.75;100753.53;7812546;32;37646;-80
2023/03/01 07:33:58;;;;;;;17.65;8.95;;;;;;;7.31;42.65;100751.72;7798781;32;37045;-75
2023/03/01 07:38:14;;;;;;;15.40;8.25;;;;;;;7.37;46.17;100742.69;7805227;32;38737;-80
2023/03/01 07:42:30;;;;;;;15.77;9.23;;;;;;;7.47;42.53;100742.16;7791814;32;37767;-80
2023/03/01 07:46:46;;;;;;;15.88;8.60;;;;;;;7.32;42.80;100728.97;7811631;32;38832;-79
2023/03/01 07:51:04;;;;;;;19.73;8.75;;;;;;;7.86;41.58;100734.53;7811777;32;36696;-80
2023/03/01 07:55:20;;;;;;;14.98;7.95;;;;;;;7.76;41.77;100739.66;7811604;32;39099;-78
2023/03/01 07:59:37;;;;;;;16.12;8.27;;;;;;;7.89;44.93;100734.88;7811496;32;40087;-80
2023/03/01 08:03:53;;;;;;;14.57;7.47;;;;;;;8.12;41.32;100733.28;7811327;32;38630;-81
2023/03/01 08:08:11;;;;;;;14.68;8.32;;;;;;;7.99;41.93;100730.81;7809725;32;36844;-81
2023/03/01 08:12:28;;;;;;;16.17;8.57;;;;;;;8.15;40.93;100738.25;7811248;32;39156;-81
2023/03/01 08:16:44;;;;;;;16.98;7.85;;;;;;;8.36;40.61;100722.47;7800830;32;39870;-82
2023/03/01 08:21:15;;;;;;;15.98;8.68;;;;;;;8.69;39.71;100721.94;7808149;32;37924;-81
2023/03/01 08:25:31;;;;;;;14.25;8.10;;;;;;;8.48;40.09;100736.94;7811264;32;36968;-80
2023/03/01 08:29:47;;;;;;;14.95;7.82;;;;;;;8.91;39.67;100724.87;7795348;32;39079;-81
2023/03/01 08:34:08;;;;;;;13.82;7.90;;;;;;;8.77;38.71;100726.19;7781882;32;39957;-81
2023/03/01 08:38:27;;;;;;;19.17;7.53;;;;;;;8.94;38.22;100707.28;7772786;32;38678;-82
2023/03/01 08:42:43;;;;;;;14.65;8.38;;;;;;;9.03;38.72;100703.12;7786009;32;36915;-81
2023/03/01 08:46:59;;;;;;;14.63;6.78;;;;;;;9.31;38.37;100699.62;7792369;32;39208;-82
2023/03/01 08:51:17;;;;;;;15.52;7.80;;;;;;;9.48;37.87;100696.12;7792309;32;40907;-80
2023/03/01 08:55:34;;;;;;;12.57;7.15;;;;;;;9.87;37.15;100688.16;7778239;32;40265;-81
2023/03/01 08:59:50;;;;;;;15.18;7.45;;;;;;;9.73;37.32;100688.47;7792071;32;37714;-81
2023/03/01 09:04:06;;;;;;;13.07;7.15;;;;;;;9.73;38.37;100693.09;7792220;32;39939;-82
2023/03/01 09:08:22;;;;;;;13.15;7.37;;;;;;;10.15;37.42;100690.00;7784600;32;40431;-82
2023/03/01 09:12:41;;;;;;;14.68;7.68;;;;;;;10.29;36.50;100683.12;7764854;32;37818;-81
2023/03/01 09:16:57;;;;;;;11.20;6.53;;;;;;;10.10;36.13;100682.56;7788791;32;36897;-81
2023/03/01 09:21:16;;;;;;;16.37;6.37;;;;;;;10.22;37.03;100673.50;7792095;32;39899;-81
2023/03/01 09:25:39;;;;;;;12.32;6.45;;;;;;;11.05;36.68;100676.34;7785869;32;41282;-81
2023/03/01 09:29:56;;;;;;;11.05;6.20;;;;;;;11.34;33.56;100668.78;7765435;32;38826;-78
2023/03/01 09:34:15;;;;;;;11.30;6.10;;;;;;;11.23;33.70;100667.03;7765747;32;37664;-80
2023/03/01 09:38:34;;;;;;;10.27;6.18;;;;;;;11.15;34.19;100665.56;7765737;32;39143;-80
2023/03/01 09:43:02;;;;;;;10.02;5.32;;;;;;;12.06;34.15;100657.81;7764633;32;39990;-80
2023/03/01 09:47:28;;;;;;;8.75;4.82;;;;;;;12.37;32.73;100651.47;7765664;32;37720;-80
2023/03/01 09:51:57;;;;;;;12.05;6.20;;;;;;;12.09;33.05;100646.31;7765583;32;37072;-80
2023/03/01 09:56:20;;;;;;;11.30;5.80;;;;;;;12.57;30.94;100634.38;7752743;32;39081;-82
2023/03/01 10:00:43;;;;;;;;;;;;;;;12.51;30.90;100642.81;7769025;32;40805;-81
2023/03/01 10:05:11;;;;;;;9.88;4.90;;;;;;;12.98;31.12;100624.72;7780343;32;38176;-79
2023/03/01 10:09:29;;;;;;;10.30;5.78;;;;;;;13.36;31.22;100615.28;7764380;32;37770;-80
2023/03/01 10:13:48;;;;;;;9.98;4.75;;;;;;;14.14;29.95;100607.94;7755801;32;39237;-80
2023/03/01 10:18:14;;;;;;;7.87;4.25;;;;;;;13.97;29.26;100589.03;7772342;32;40008;-80
2023/03/01 10:22:31;;;;;;;16.75;5.93;;;;;;;14.13;29.29;100595.34;7775474;32;37768;-82
2023/03/01 10:27:02;;;;;;;6.53;3.95;;;;;;;14.01;28.89;100590.16;7778012;32;37672;-83
2023/03/01 10:31:29;;;;;;;7.53;4.00;;;;;;;14.26;30.49;100579.16;7792288;32;39113;-80
2023/03/01 10:35:47;;;;;;;7.95;4.68;;;;;;;14.89;28.95;100577.06;7779176;32;39944;-81
2023/03/01 10:40:08;;;;;;;11.52;5.05;;;;;;;14.47;28.28;100565.38;7790541;32;38120;-81
2023/03/01 10:44:39;;;;;;;13.70;5.35;;;;;;;14.43;29.09;100567.03;7792092;32;36609;-80
2023/03/01 10:49:21;;;;;;;10.32;5.12;;;;;;;14.56;28.55;100549.19;7791919;32;39949;-81
2023/03/01 10:53:50;;;;;;;8.15;4.40;;;;;;;14.47;29.24;100546.19;7791395;32;40812;-81
2023/03/01 10:58:18;;;;;;;7.95;5.07;;;;;;;14.68;28.98;100544.22;7778407;32;37925;-81
2023/03/01 11:02:37;;;;;;;12.27;5.30;;;;;;;14.81;28.95;100540.03;7791712;32;36944;-81
2023/03/01 11:06:59;;;;;;;8.38;4.45;;;;;;;15.32;29.17;100537.00;7777507;32;39129;-82
2023/03/01 11:11:24;;;;;;;12.75;4.37;;;;;;;15.30;28.17;100522.72;7791098;32;40130;-82
2023/03/01 11:15:41;;;;;;;7.80;4.28;;;;;;;15.42;28.36;100510.53;7776044;32;37996;-80
2023/03/01 11:20:13;;;;;;;8.90;4.37;;;;;;;15.61;28.30;100499.66;7780171;32;37665;-81
2023/03/01 11:24:41;;;;;;;10.25;4.57;;;;;;;15.35;28.32;100497.97;7791217;32;39944;-81
2023/03/01 11:29:03;;;;;;;10.50;4.68;;;;;;;15.57;27.75;100492.03;7767227;32;40613;-81
2023/03/01 11:33:45;;;;;;;11.23;4.78;;;;;;;15.93;27.91;100497.19;7766217;32;38775;-81
2023/03/01 11:38:23;;;;;;;14.50;4.45;;;;;;;16.00;27.10;100496.84;7763484;32;35892;-79
2023/03/01 11:42:59;;;;;;;9.48;4.55;;;;;;;16.02;26.63;100491.88;7761057;32;39995;-81
2023/03/01 11:47:40;;;;;;;8.45;4.30;;;;;;;16.12;27.76;100491.75;7775070;32;40822;-80
2023/03/01 11:51:59;;;;;;;9.60;3.80;;;;;;;16.80;27.40;100478.00;7789966;32;38470;-82
2023/03/01 11:56:26;;;;;;;5.50;3.00;;;;;;;17.22;25.53;100479.09;7774631;32;36929;-80
2023/03/01 12:01:01;;;;;;;4.15;2.70;;;;;;;16.84;26.81;100466.12;7761274;32;39738;-81
2023/03/01 12:06:03;;;;;;;6.07;3.20;;;;;;;17.48;26.76;100465.69;7776100;32;40816;-80
2023/03/01 12:10:43;;;;;;;5.97;3.45;;;;;;;17.92;25.71;100458.88;7771450;32;38777;-81
2023/03/01 12:15:02;;;;;;;7.53;3.80;;;;;;;17.80;26.77;100458.53;7784129;32;36877;-81
2023/03/01 12:19:39;;;;;;;7.87;3.80;;;;;;;17.29;26.31;100446.44;7772611;32;37018;-80
2023/03/01 12:24:10;;;;;;;5.00;2.80;;;;;;;16.00;27.86;100455.59;7767700;32;40792;-81
2023/03/01 12:28:41;;;;;;;7.15;3.33;;;;;;;16.26;28.18;100449.81;7766039;32;37897;-81
2023/03/01 12:33:21;;;;;;;6.30;3.37;;;;;;;15.70;29.44;100451.22;7764826;32;37661;-81
2023/03/01 12:38:03;;;;;;;8.68;3.55;;;;;;;15.62;29.78;100444.41;7752894;32;39158;-81
2023/03/01 12:42:27;;;;;;;10.40;3.85;;;;;;;15.44;29.50;100439.66;7766292;32;40835;-82
2023/03/01 12:47:04;;;;;;;7.87;4.10;;;;;;;15.35;30.58;100447.69;7751436;32;38414;-81
2023/03/01 12:51:26;;;;;;;10.60;3.90;;;;;;;14.98;30.66;100433.41;7766253;32;37358;-80
2023/03/01 12:55:42;;;;;;;6.50;3.58;;;;;;;14.67;30.28;100442.97;7766206;32;39092;-81
2023/03/01 13:00:33;;;;;;;20.02;4.37;;;;;;;14.46;30.55;100440.28;7766508;32;39907;-81
2023/03/01 13:05:03;;;;;;;9.45;4.12;;;;;;;14.62;30.65;100421.84;7753674;32;38883;-82
2023/03/01 13:09:50;;;;;;;6.43;3.60;;;;;;;14.69;30.07;100414.13;7765906;32;36700;-81
2023/03/01 13:14:22;;;;;;;7.15;3.28;;;;;;;14.71;29.98;100408.34;7765867;32;39157;-82
2023/03/01 13:18:38;;;;;;;10.23;3.90;;;;;;;14.97;29.42;100407.06;7765449;32;40057;-82
2023/03/01 13:23:21;;;;;;;10.13;4.07;;;;;;;15.58;28.73;100404.88;7751842;32;38894;-82
2023/03/01 13:27:37;;;;;;;6.43;3.65;;;;;;;15.48;28.96;100407.75;7752973;32;36975;-82
2023/03/01 13:31:58;;;;;;;7.10;3.67;;;;;;;16.08;27.91;100391.72;7765591;32;39300;-82
2023/03/01 13:36:29;;;;;;;8.68;3.92;;;;;;;16.62;26.76;100392.34;7766059;32;39545;-82
2023/03/01 13:40:58;;;;;;;7.10;3.42;;;;;;;16.69;26.99;100394.75;7765463;32;37780;-82
2023/03/01 13:45:25;;;;;;;6.12;3.17;;;;;;;16.48;27.47;100389.53;7765663;32;36842;-83
2023/03/01 13:49:47;;;;;;;5.07;3.00;;;;;;;15.96;27.92;100394.06;7752062;32;39110;-83
2023/03/01 13:54:03;;;;;;;8.18;3.53;;;;;;;16.86;27.39;100392.31;7765441;32;40808;-83
2023/03/01 13:59:06;;;;;;;8.77;3.30;;;;;;;16.91;27.29;100371.31;7765240;32;38735;-83
2023/03/01 14:03:22;;;;;;;9.90;3.80;;;;;;;17.25;26.33;100363.56;7757390;32;37514;-83
2023/03/01 14:07:41;;;;;;;14.10;3.90;;;;;;;16.40;27.39;100361.84;7765461;32;39129;-84
2023/03/01 14:12:11;;;;;;;7.47;3.58;;;;;;;16.42;27.82;100359.63;7765206;32;39415;-83
2023/03/01 14:16:38;;;;;;;9.13;4.10;;;;;;;16.63;27.17;100354.66;7752624;32;38834;-83
2023/03/01 14:20:54;;;;;;;7.03;3.53;;;;;;;16.86;27.17;100339.97;7764913;32;37630;-83
2023/03/01 14:25:24;;;;;;;5.93;3.20;;;;;;;16.41;27.62;100339.56;7738656;32;39091;-83
2023/03/01 14:29:41;;;;;;;7.00;3.30;;;;;;;16.19;27.99;100347.56;7764220;32;39982;-83
2023/03/01 14:33:57;;;;;;;6.32;3.00;;;;;;;16.41;27.80;100327.72;7764869;32;37998;-83
2023/03/01 14:38:48;;;;;;;6.20;3.08;;;;;;;16.49;28.08;100314.13;7764896;32;35875;-84
2023/03/01 14:43:17;;;;;;;5.62;3.05;;;;;;;16.34;27.61;100311.59;7761574;32;38947;-83
2023/03/01 14:47:39;;;;;;;11.77;3.42;;;;;;;16.70;27.96;100319.31;7764678;32;40012;-84
2023/03/01 14:52:06;;;;;;;9.80;3.25;;;;;;;17.02;27.49;100317.69;7764633;32;38005;-84
2023/03/01 14:56:26;;;;;;;5.35;3.00;;;;;;;16.88;27.33;100314.91;7764697;32;37640;-84
2023/03/01 15:00:54;;;;;;;5.93;2.92;;;;;;;17.38;26.08;100315.09;7764422;32;39049;-84
2023/03/01 15:05:13;;;;;;;5.72;3.47;;;;;;;16.73;27.19;100310.44;7751095;32;40040;-84
2023/03/01 15:09:30;;;;;;;7.00;2.87;;;;;;;17.77;25.94;100290.94;7764160;32;38754;-84
2023/03/01 15:13:47;;;;;;;5.68;2.90;;;;;;;18.08;25.02;100290.31;7750253;32;37675;-81
2023/03/01 15:18:16;;;;;;;8.07;3.22;;;;;;;18.29;25.09;100280.41;7763549;32;39183;-84
2023/03/01 15:22:32;;;;;;;9.77;2.72;;;;;;;19.11;23.98;100283.94;7763800;32;39692;-84
2023/03/01 15:26:54;;;;;;;7.78;2.97;;;;;;;21.62;21.26;100276.38;7749859;32;38540;-81
2023/03/01 15:31:20;;;;;;;5.68;2.90;;;;;;;24.07;18.22;100258.03;7763660;32;37647;-84
2023/03/01 15:35:42;;;;;;;4.75;2.65;;;;;;;23.05;18.34;100264.25;7763587;32;39276;-81
2023/03/01 15:39:58;;;;;;;12.73;4.70;;;;;;;21.93;20.15;100262.94;7764447;32;40017;-83
2023/03/01 15:44:29;;;;;;;11.73;5.55;;;;;;;21.06;21.53;100268.06;7766782;32;38210;-83
2023/03/01 15:49:02;;;;;;;11.82;6.20;;;;;;;20.11;22.86;100270.63;7766877;32;37079;-82
2023/03/01 15:53:19;;;;;;;16.70;7.20;;;;;;;18.97;24.53;100288.72;7753606;32;39216;-83
2023/03/01 15:57:35;;;;;;;14.87;7.30;;;;;;;18.64;24.96;100293.69;7766798;32;40022;-82
2023/03/01 16:01:51;;;;;;;14.05;7.40;;;;;;;18.10;25.33;100288.03;7766610;32;38699;-82
2023/03/01 16:06:10;;;;;;;12.55;6.12;;;;;;;17.13;26.85;100288.06;7766780;32;36214;-83
2023/03/01 16:10:27;;;;;;;11.02;5.80;;;;;;;16.26;28.48;100295.75;7766826;32;39910;-82
2023/03/01 16:14:44;;;;;;;11.82;6.25;;;;;;;15.39;30.24;100306.72;7766520;32;40035;-82
2023/03/01 16:19:00;;;;;;;13.00;6.40;;;;;;;15.39;30.50;100309.47;7766284;32;38437;-82
2023/03/01 16:23:16;;;;;;;11.32;5.28;;;;;;;14.98;31.66;100309.06;7766546;32;37152;-82
2023/03/01 16:27:32;;;;;;;11.55;5.40;;;;;;;14.87;31.75;100305.59;7766453;32;38968;-82
2023/03/01 16:31:48;;;;;;;9.43;5.30;;;;;;;14.31;33.01;100317.75;7766234;32;40616;-82
2023/03/01 16:36:13;;;;;;;11.43;5.60;;;;;;;14.01;33.65;100316.00;7766240;32;37927;-82
2023/03/01 16:40:30;;;;;;;12.95;7.00;;;;;;;14.01;33.46;100324.25;7766086;32;37323;-82
2023/03/01 16:44:46;;;;;;;15.20;5.22;;;;;;;13.87;33.42;100313.88;7766124;32;39198;-82
2023/03/01 16:49:03;;;;;;;12.65;6.25;;;;;;;13.42;35.02;100321.16;7766058;32;40772;-81
2023/03/01 16:53:19;;;;;;;11.45;5.95;;;;;;;13.09;36.05;100337.06;7765654;32;38434;-81
2023/03/01 16:57:38;;;;;;;14.15;6.18;;;;;;;13.08;35.70;100338.16;7766102;32;37098;-82
2023/03/01 17:01:54;;;;;;;15.00;6.47;;;;;;;13.00;35.75;100343.38;7765789;32;40327;-81
2023/03/01 17:06:13;;;;;;;18.73;9.20;;;;;;;12.65;36.68;100337.59;7766110;32;39758;-81
2023/03/01 17:10:29;;;;;;;13.57;7.20;;;;;;;12.29;37.49;100344.94;7765750;32;38008;-81
2023/03/01 17:14:45;;;;;;;15.73;7.70;;;;;;;12.30;36.94;100350.13;7766087;32;37767;-82
2023/03/01 17:19:06;;;;;;;13.02;7.35;;;;;;;11.97;37.49;100360.41;7765695;32;38981;-81
2023/03/01 17:23:22;;;;;;;15.30;7.70;;;;;;;11.88;37.57;100356.50;7765673;32;39723;-81
2023/03/01 17:27:39;;;;;;;13.02;7.80;;;;;;;11.77;38.16;100363.03;7751579;32;37894;-81
2023/03/01 17:31:58;;;;;;;15.60;7.90;;;;;;;11.49;38.64;100365.06;7765635;32;37111;-82
2023/03/01 17:36:15;;;;;;;13.77;7.18;;;;;;;11.38;38.67;100366.06;7765549;32;39832;-81
2023/03/01 17:40:32;;;;;;;12.63;7.62;;;;;;;11.16;39.11;100367.03;7765513;32;40734;-81
2023/03/01 17:44:48;;;;;;;11.98;7.18;;;;;;;10.97;39.64;100371.22;7765370;32;37953;-81
2023/03/01 17:49:04;;;;;;;17.83;7.12;;;;;;;10.84;39.99;100362.37;7765432;32;37269;-81
2023/03/01 17:53:20;;;;;;;16.27;7.10;;;;;;;10.89;39.91;100367.88;7765408;32;39060;-81
2023/03/01 17:57:40;;;;;;;13.52;7.10;;;;;;;10.94;39.78;100366.31;7765373;32;40445;-81
2023/03/01 18:02:00;;;;;;;13.18;7.57;;;;;;;11.02;39.52;100355.72;7764199;32;37749;-80
2023/03/01 18:06:22;;;;;;;14.77;7.62;;;;;;;10.63;40.43;100368.75;7765234;32;37583;-81
2023/03/01 18:10:38;;;;;;;13.57;6.82;;;;;;;10.67;40.53;100370.69;7751967;32;39201;-81
2023/03/01 18:14:55;;;;;;;11.77;6.05;;;;;;;10.62;40.75;100362.47;7765050;32;40620;-80
2023/03/01 18:19:12;;;;;;;12.40;6.15;;;;;;;10.39;41.52;100358.16;7764247;32;37976;-81
2023/03/01 18:23:29;;;;;;;14.15;6.50;;;;;;;10.52;40.82;100356.94;7764891;32;36990;-81
2023/03/01 18:27:49;;;;;;;12.05;6.30;;;;;;;10.36;41.21;100357.84;7764874;32;39289;-80
2023/03/01 18:32:05;;;;;;;15.10;6.85;;;;;;;10.19;41.38;100357.91;7764796;32;39907;-80
2023/03/01 18:36:25;;;;;;;13.27;6.72;;;;;;;10.13;41.54;100359.75;7764605;32;37936;-80
2023/03/01 18:40:44;;;;;;;10.55;6.68;;;;;;;10.19;41.36;100360.62;7764958;32;37167;-81
2023/03/01 18:45:01;;;;;;;12.95;6.20;;;;;;;10.03;41.79;100356.91;7764669;32;40029;-79
2023/03/01 18:49:17;;;;;;;17.77;6.78;;;;;;;9.96;41.75;100366.06;7764531;32;40786;-80
2023/03/01 18:53:33;;;;;;;13.85;7.55;;;;;;;9.85;42.13;100360.75;7764388;32;38934;-79
2023/03/01 18:57:50;;;;;;;17.95;8.48;;;;;;;9.60;42.55;100345.75;7766127;32;37087;-80
2023/03/01 19:02:06;;;;;;;15.43;7.45;;;;;;;9.48;43.09;100350.47;7787529;32;39965;-80
2023/03/01 19:06:26;;;;;;;12.35;6.78;;;;;;;9.57;42.73;100354.41;7776951;32;40736;-80
2023/03/01 19:10:42;;;;;;;14.60;6.37;;;;;;;9.11;43.83;100362.72;7763806;32;38450;-80
2023/03/01 19:14:58;;;;;;;13.27;5.97;;;;;;;9.24;43.68;100355.28;7764950;32;36924;-79
2023/03/01 19:19:15;;;;;;;10.80;6.00;;;;;;;9.35;43.42;100355.19;7790112;32;39991;-79
2023/03/01 19:23:35;;;;;;;10.82;6.18;;;;;;;8.79;44.95;100367.91;7790697;32;40685;-79
2023/03/01 19:27:51;;;;;;;13.43;5.70;;;;;;;8.71;44.92;100366.44;7770762;32;37944;-80
2023/03/01 19:32:07;;;;;;;12.40;6.22;;;;;;;8.89;44.39;100361.81;7763348;32;37840;-79
2023/03/01 19:36:31;;;;;;;12.32;6.57;;;;;;;8.54;45.37;100366.41;7773259;32;40090;-80
2023/03/01 19:40:48;;;;;;;16.62;7.70;;;;;;;8.49;45.38;100369.03;7790315;32;40769;-80
2023/03/01 19:45:05;;;;;;;11.88;6.80;;;;;;;8.55;45.19;100365.31;7786860;32;38501;-80
2023/03/01 19:49:22;;;;;;;15.55;6.35;;;;;;;8.40;45.56;100367.72;7763377;32;37031;-80
2023/03/01 19:53:39;;;;;;;11.30;6.40;;;;;;;8.58;45.05;100366.72;7767566;32;39205;-79
2023/03/01 19:57:55;;;;;;;13.52;6.32;;;;;;;8.38;45.47;100367.97;7779929;32;39924;-80
2023/03/01 20:02:11;;;;;;;10.85;5.95;;;;;;;8.45;45.28;100362.41;7789627;32;37957;-79
2023/03/01 20:06:28;;;;;;;16.17;7.05;;;;;;;7.97;46.65;100360.91;7789665;32;37749;-79
2023/03/01 20:10:45;;;;;;;14.52;6.62;;;;;;;7.96;46.59;100361.97;7788026;32;40044;-80
2023/03/01 20:15:01;;;;;;;28.45;6.82;;;;;;;8.11;46.20;100367.72;7776516;32;40175;-80